Time;durP1;ratioP1;P1;durP2;ratioP2;P2;SDS_P1;SDS_P2;PMS_P1;PMS_P2;Temp;Humidity;BMP_temperature;BMP_pressure;BME280_temperature;BME280_humidity;BME280_pressure;Samples;Min_cycle;Max_cycle;Signal;HPM_P1;HPM_P2
2021/06/27 00:01:53;;;;;;;4.07;3.78;;;;;;;;;;4993592;28;20022;-75
2021/06/27 00:04:19;;;;;;;4.60;4.28;;;;;;;;;;4993481;28;20054;-75
2021/06/27 00:06:47;;;;;;;5.18;4.70;;;;;;;;;;4993540;28;20030;-75
2021/06/27 00:09:13;;;;;;;5.68;4.75;;;;;;;;;;4993244;28;20034;-75
2021/06/27 00:11:39;;;;;;;4.60;4.20;;;;;;;;;;4993326;28;20038;-75
2021/06/27 00:14:05;;;;;;;4.85;4.45;;;;;;;;;;4993503;28;20038;-75
2021/06/27 00:16:31;;;;;;;4.72;4.03;;;;;;;;;;4993566;28;20030;-75
2021/06/27 00:18:58;;;;;;;4.70;4.22;;;;;;;;;;4993226;28;20113;-75
2021/06/27 00:21:25;;;;;;;5.18;4.68;;;;;;;;;;5000912;28;20587;-75
2021/06/27 00:23:51;;;;;;;4.88;4.18;;;;;;;;;;4995140;28;20022;-75
2021/06/27 00:26:19;;;;;;;5.00;4.60;;;;;;;;;;4993255;28;20054;-75
2021/06/27 00:28:46;;;;;;;4.45;4.05;;;;;;;;;;4992494;28;20100;-75
2021/06/27 00:31:12;;;;;;;4.45;4.05;;;;;;;;;;4993250;28;20479;-74
2021/06/27 00:33:38;;;;;;;4.10;3.70;;;;;;;;;;4975443;28;20141;-75
2021/06/27 00:36:05;;;;;;;4.70;4.30;;;;;;;;;;4993296;28;20030;-75
2021/06/27 00:38:31;;;;;;;6.95;5.32;;;;;;;;;;4992676;28;20031;-74
2021/06/27 00:40:57;;;;;;;5.63;5.13;;;;;;;;;;4992511;28;20041;-74
2021/06/27 00:43:23;;;;;;;6.20;5.60;;;;;;;;;;4993101;28;20102;-74
2021/06/27 00:45:50;;;;;;;4.85;4.45;;;;;;;;;;4975229;28;20033;-75
2021/06/27 00:48:16;;;;;;;5.32;4.82;;;;;;;;;;4992583;28;20033;-74
2021/06/27 00:50:43;;;;;;;4.95;4.47;;;;;;;;;;4999120;28;20033;-75
2021/06/27 00:53:10;;;;;;;5.05;4.55;;;;;;;;;;5003883;28;20029;-75
2021/06/27 00:55:36;;;;;;;5.13;4.63;;;;;;;;;;5010359;28;20034;-74
2021/06/27 00:58:03;;;;;;;5.03;4.53;;;;;;;;;;4992706;28;20678;-74
2021/06/27 01:00:31;;;;;;;4.65;4.25;;;;;;;;;;4992238;28;20057;-74
2021/06/27 01:02:58;;;;;;;4.55;4.15;;;;;;;;;;4992438;28;20073;-74
2021/06/27 01:05:29;;;;;;;4.03;3.72;;;;;;;;;;4993063;28;20502;-74
2021/06/27 01:07:55;;;;;;;3.90;3.60;;;;;;;;;;4993062;28;20389;-74
2021/06/27 01:10:22;;;;;;;3.80;3.50;;;;;;;;;;4993540;28;20026;-74
2021/06/27 01:12:49;;;;;;;4.50;3.55;;;;;;;;;;4993235;28;20026;-74
2021/06/27 01:15:16;;;;;;;4.35;3.90;;;;;;;;;;4992607;28;20108;-74
2021/06/27 01:17:43;;;;;;;3.78;3.42;;;;;;;;;;4992401;28;20038;-74
2021/06/27 01:20:10;;;;;;;3.95;3.53;;;;;;;;;;4994062;28;20027;-75
2021/06/27 01:22:36;;;;;;;3.55;3.15;;;;;;;;;;5000364;28;20034;-75
2021/06/27 01:25:02;;;;;;;3.83;3.42;;;;;;;;;;5009269;28;20071;-75
2021/06/27 01:27:28;;;;;;;3.60;3.30;;;;;;;;;;5001988;28;20053;-75
2021/06/27 01:29:54;;;;;;;3.65;3.17;;;;;;;;;;4991628;28;20033;-75
2021/06/27 01:32:20;;;;;;;3.67;3.13;;;;;;;;;;4992197;28;20030;-75
2021/06/27 01:34:46;;;;;;;3.60;3.30;;;;;;;;;;4992459;28;20078;-75
2021/06/27 01:37:12;;;;;;;3.85;3.45;;;;;;;;;;4991903;28;20026;-75
2021/06/27 01:39:39;;;;;;;3.28;2.97;;;;;;;;;;4992125;28;20014;-75
2021/06/27 01:42:05;;;;;;;2.60;2.40;;;;;;;;;;4996254;28;20033;-75
2021/06/27 01:44:32;;;;;;;2.80;2.60;;;;;;;;;;4996591;28;20030;-75
2021/06/27 01:46:58;;;;;;;2.80;2.60;;;;;;;;;;4998694;28;20053;-74
2021/06/27 01:49:25;;;;;;;2.90;2.60;;;;;;;;;;4996933;28;20150;-75
2021/06/27 01:51:51;;;;;;;2.63;2.42;;;;;;;;;;5003805;28;20114;-75
2021/06/27 01:54:17;;;;;;;2.35;2.25;;;;;;;;;;5007796;28;20029;-75
2021/06/27 01:56:43;;;;;;;2.45;2.25;;;;;;;;;;5015398;28;20030;-75
2021/06/27 01:59:10;;;;;;;2.85;2.22;;;;;;;;;;5000308;28;20415;-75
2021/06/27 02:01:37;;;;;;;2.30;2.10;;;;;;;;;;4995871;28;20026;-75
2021/06/27 02:04:03;;;;;;;3.15;1.77;;;;;;;;;;4995994;28;20045;-75
2021/06/27 02:06:29;;;;;;;2.33;1.83;;;;;;;;;;4996430;28;20027;-75
2021/06/27 02:08:58;;;;;;;2.42;1.98;;;;;;;;;;4995867;28;20132;-75
2021/06/27 02:11:24;;;;;;;1.98;1.77;;;;;;;;;;4995442;28;20130;-77
2021/06/27 02:13:51;;;;;;;2.28;2.10;;;;;;;;;;4995780;28;20130;-75
2021/06/27 02:16:17;;;;;;;2.40;2.20;;;;;;;;;;4995807;28;20494;-75
2021/06/27 02:18:44;;;;;;;2.30;2.10;;;;;;;;;;4994947;28;20034;-75
2021/06/27 02:21:16;;;;;;;2.38;2.17;;;;;;;;;;4997631;28;20035;-75
2021/06/27 02:23:42;;;;;;;1.50;1.40;;;;;;;;;;5007081;28;20041;-75
2021/06/27 02:26:09;;;;;;;1.70;1.60;;;;;;;;;;5015034;28;20033;-76
2021/06/27 02:28:35;;;;;;;2.00;1.85;;;;;;;;;;5013135;28;20040;-75
2021/06/27 02:31:01;;;;;;;1.75;1.65;;;;;;;;;;4995204;28;20108;-75
2021/06/27 02:33:28;;;;;;;1.77;1.63;;;;;;;;;;4995427;28;20037;-76
2021/06/27 02:35:54;;;;;;;2.92;1.92;;;;;;;;;;4995314;28;20061;-75
2021/06/27 02:38:20;;;;;;;2.05;1.95;;;;;;;;;;4994826;28;20058;-75
2021/06/27 02:40:46;;;;;;;1.60;1.50;;;;;;;;;;4995455;28;20031;-74
2021/06/27 02:43:13;;;;;;;1.70;1.60;;;;;;;;;;4978905;28;20022;-74
2021/06/27 02:45:39;;;;;;;2.45;2.25;;;;;;;;;;4996099;28;20050;-74
2021/06/27 02:48:08;;;;;;;1.63;1.52;;;;;;;;;;4996204;28;20471;-75
2021/06/27 02:50:36;;;;;;;1.70;1.60;;;;;;;;;;4994804;28;20030;-75
2021/06/27 02:53:02;;;;;;;2.60;1.50;;;;;;;;;;5002557;28;20023;-75
2021/06/27 02:55:28;;;;;;;2.38;2.03;;;;;;;;;;5014666;28;20022;-75
2021/06/27 02:57:54;;;;;;;1.35;1.25;;;;;;;;;;5014919;28;20132;-75
2021/06/27 03:00:21;;;;;;;1.77;1.50;;;;;;;;;;5006401;28;20041;-75
2021/06/27 03:02:47;;;;;;;1.90;1.80;;;;;;;;;;4994834;28;20038;-75
2021/06/27 03:05:14;;;;;;;1.70;1.60;;;;;;;;;;4995324;28;20026;-75
2021/06/27 03:07:40;;;;;;;1.60;1.50;;;;;;;;;;4994850;28;20388;-75
2021/06/27 03:10:08;;;;;;;1.80;1.70;;;;;;;;;;4994255;28;20479;-75
2021/06/27 03:12:34;;;;;;;1.25;1.17;;;;;;;;;;4994619;28;20273;-75
2021/06/27 03:15:00;;;;;;;1.50;1.40;;;;;;;;;;4994419;28;20084;-75
2021/06/27 03:17:26;;;;;;;1.25;1.25;;;;;;;;;;4994467;28;20027;-75
2021/06/27 03:19:52;;;;;;;1.30;1.23;;;;;;;;;;4994347;28;20621;-75
2021/06/27 03:22:18;;;;;;;1.58;1.48;;;;;;;;;;5002325;28;20026;-75
2021/06/27 03:24:44;;;;;;;2.83;1.80;;;;;;;;;;5009142;28;20636;-74
2021/06/27 03:27:10;;;;;;;1.80;1.70;;;;;;;;;;5014218;28;20069;-74
2021/06/27 03:29:36;;;;;;;1.83;1.73;;;;;;;;;;5014198;28;20099;-74
2021/06/27 03:32:02;;;;;;;2.00;1.70;;;;;;;;;;5001197;28;20101;-74
2021/06/27 03:34:28;;;;;;;1.60;1.50;;;;;;;;;;4995800;28;20031;-75
2021/06/27 03:36:54;;;;;;;2.95;1.65;;;;;;;;;;5016061;28;20066;-75
2021/06/27 03:39:21;;;;;;;1.80;1.70;;;;;;;;;;5005369;28;20038;-75
2021/06/27 03:41:54;;;;;;;1.45;1.30;;;;;;;;;;4995248;28;20026;-76
2021/06/27 03:44:21;;;;;;;1.42;1.33;;;;;;;;;;4994651;28;20058;-76
2021/06/27 03:46:47;;;;;;;1.65;1.55;;;;;;;;;;4994344;28;20533;-76
2021/06/27 03:49:13;;;;;;;1.98;1.60;;;;;;;;;;4994014;28;20026;-76
2021/06/27 03:51:39;;;;;;;1.98;1.80;;;;;;;;;;4995653;28;20097;-77
2021/06/27 03:54:05;;;;;;;1.40;1.30;;;;;;;;;;5002424;28;20113;-77
2021/06/27 03:56:31;;;;;;;1.70;1.60;;;;;;;;;;4994107;28;20045;-76
2021/06/27 03:58:57;;;;;;;2.03;1.65;;;;;;;;;;4993722;28;20098;-76
2021/06/27 04:01:23;;;;;;;1.33;1.25;;;;;;;;;;4997548;28;20077;-76
2021/06/27 04:03:50;;;;;;;1.70;1.60;;;;;;;;;;4995399;28;20076;-76
2021/06/27 04:06:16;;;;;;;2.20;2.00;;;;;;;;;;4993702;28;20124;-76
2021/06/27 04:08:42;;;;;;;1.50;1.40;;;;;;;;;;4993448;28;20146;-76
2021/06/27 04:11:08;;;;;;;1.50;1.40;;;;;;;;;;4993531;28;20039;-76
2021/06/27 04:13:35;;;;;;;1.27;1.17;;;;;;;;;;4993608;28;20030;-76
2021/06/27 04:16:03;;;;;;;1.52;1.42;;;;;;;;;;4993325;28;20105;-76
2021/06/27 04:18:29;;;;;;;1.90;1.80;;;;;;;;;;4993024;28;20029;-76
2021/06/27 04:20:55;;;;;;;1.88;1.67;;;;;;;;;;4993431;28;20030;-76
2021/06/27 04:23:21;;;;;;;1.90;1.80;;;;;;;;;;5004681;28;20053;-76
2021/06/27 04:25:47;;;;;;;1.67;1.58;;;;;;;;;;5012832;28;20045;-76
2021/06/27 04:28:14;;;;;;;1.73;1.60;;;;;;;;;;5012808;28;20030;-76
2021/06/27 04:30:40;;;;;;;2.15;1.88;;;;;;;;;;5012948;28;20391;-76
2021/06/27 04:33:07;;;;;;;1.88;1.58;;;;;;;;;;5008215;28;20391;-76
2021/06/27 04:35:35;;;;;;;1.80;1.70;;;;;;;;;;4993640;28;20037;-76
2021/06/27 04:38:01;;;;;;;2.70;1.90;;;;;;;;;;4993983;28;20479;-77
2021/06/27 04:40:27;;;;;;;1.88;1.77;;;;;;;;;;4993873;28;20033;-76
2021/06/27 04:42:53;;;;;;;1.90;1.80;;;;;;;;;;4993176;28;20101;-77
2021/06/27 04:45:20;;;;;;;1.73;1.58;;;;;;;;;;4993162;28;20057;-77
2021/06/27 04:47:46;;;;;;;1.58;1.50;;;;;;;;;;4993230;28;20030;-76
2021/06/27 04:50:12;;;;;;;1.88;1.73;;;;;;;;;;4993633;28;20034;-77
2021/06/27 04:52:39;;;;;;;1.67;1.58;;;;;;;;;;4992553;28;20030;-77
2021/06/27 04:55:05;;;;;;;1.92;1.60;;;;;;;;;;5003333;28;20034;-77
2021/06/27 04:57:32;;;;;;;2.13;1.90;;;;;;;;;;4992677;28;20027;-77
2021/06/27 04:59:58;;;;;;;1.90;1.80;;;;;;;;;;4992132;28;20025;-77
2021/06/27 05:02:24;;;;;;;2.03;1.88;;;;;;;;;;4992667;28;20042;-77
2021/06/27 05:04:50;;;;;;;1.63;1.52;;;;;;;;;;4992211;28;20080;-77
2021/06/27 05:07:16;;;;;;;1.50;1.40;;;;;;;;;;4992547;28;20047;-77
2021/06/27 05:09:42;;;;;;;1.60;1.50;;;;;;;;;;4992712;28;20030;-77
2021/06/27 05:12:08;;;;;;;1.90;1.55;;;;;;;;;;4992734;28;20038;-76
2021/06/27 05:14:35;;;;;;;1.10;1.10;;;;;;;;;;4991645;28;20089;-76
2021/06/27 05:17:01;;;;;;;1.00;1.00;;;;;;;;;;4992745;28;20149;-77
2021/06/27 05:19:27;;;;;;;1.25;1.20;;;;;;;;;;4992241;28;20038;-76
2021/06/27 05:21:53;;;;;;;1.00;1.00;;;;;;;;;;5001017;28;20029;-76
2021/06/27 05:24:19;;;;;;;1.13;1.08;;;;;;;;;;5003813;28;20659;-75
2021/06/27 05:26:46;;;;;;;1.10;1.00;;;;;;;;;;4992336;28;20392;-75
2021/06/27 05:29:12;;;;;;;3.95;1.20;;;;;;;;;;4996251;28;20095;-77
2021/06/27 05:31:38;;;;;;;1.20;1.20;;;;;;;;;;4972314;28;20026;-78
2021/06/27 05:34:04;;;;;;;0.95;0.90;;;;;;;;;;4977317;28;20057;-77
2021/06/27 05:36:37;;;;;;;0.95;0.95;;;;;;;;;;4991305;28;20034;-77
2021/06/27 05:39:04;;;;;;;1.10;1.00;;;;;;;;;;4992879;28;20463;-77
2021/06/27 05:41:30;;;;;;;1.10;1.02;;;;;;;;;;4975679;28;20038;-78
2021/06/27 05:43:57;;;;;;;2.47;0.90;;;;;;;;;;4993353;28;20026;-77
2021/06/27 05:46:23;;;;;;;0.68;0.68;;;;;;;;;;4995342;28;20026;-78
2021/06/27 05:48:49;;;;;;;1.75;1.15;;;;;;;;;;4995471;28;20030;-77
2021/06/27 05:51:15;;;;;;;0.98;0.98;;;;;;;;;;4989916;28;20402;-78
2021/06/27 05:53:41;;;;;;;0.80;0.80;;;;;;;;;;5006052;28;20062;-78
2021/06/27 05:56:10;;;;;;;0.70;0.70;;;;;;;;;;5006626;28;20035;-79
2021/06/27 05:58:40;;;;;;;0.80;0.80;;;;;;;;;;4998238;28;20046;-81
2021/06/27 06:01:06;;;;;;;0.70;0.70;;;;;;;;;;5000324;28;20026;-79
2021/06/27 06:03:33;;;;;;;0.68;0.68;;;;;;;;;;5001823;28;20045;-79
2021/06/27 06:05:59;;;;;;;0.80;0.80;;;;;;;;;;5018871;28;20029;-80
2021/06/27 06:08:25;;;;;;;0.60;0.60;;;;;;;;;;5018953;28;20053;-80
2021/06/27 06:10:51;;;;;;;0.85;0.85;;;;;;;;;;5017513;28;20040;-79
2021/06/27 06:13:17;;;;;;;0.90;0.90;;;;;;;;;;4999991;28;20058;-79
2021/06/27 06:15:43;;;;;;;0.80;0.80;;;;;;;;;;4999555;28;20443;-79
2021/06/27 06:18:09;;;;;;;1.25;0.82;;;;;;;;;;4998362;28;20034;-79
2021/06/27 06:20:35;;;;;;;1.20;1.10;;;;;;;;;;4992758;28;20026;-78
2021/06/27 06:23:01;;;;;;;0.65;0.65;;;;;;;;;;4993623;28;20026;-79
2021/06/27 06:25:28;;;;;;;0.60;0.60;;;;;;;;;;4994303;28;20028;-79
2021/06/27 06:27:54;;;;;;;1.00;0.70;;;;;;;;;;4981406;28;20058;-79
2021/06/27 06:30:20;;;;;;;0.80;0.80;;;;;;;;;;4998319;28;20077;-79
2021/06/27 06:32:46;;;;;;;0.75;0.75;;;;;;;;;;4998350;28;20094;-79
2021/06/27 06:35:12;;;;;;;0.80;0.80;;;;;;;;;;4998542;28;20027;-79
2021/06/27 06:37:38;;;;;;;0.70;0.70;;;;;;;;;;4997902;28;20441;-79
2021/06/27 06:40:05;;;;;;;0.57;0.57;;;;;;;;;;4995655;28;20055;-79
2021/06/27 06:42:31;;;;;;;0.75;0.75;;;;;;;;;;4979532;28;20037;-79
2021/06/27 06:44:57;;;;;;;0.60;0.60;;;;;;;;;;5001429;28;20045;-79
2021/06/27 06:47:23;;;;;;;0.60;0.60;;;;;;;;;;5002532;28;20070;-78
2021/06/27 06:49:49;;;;;;;0.70;0.70;;;;;;;;;;4998678;28;20049;-79
2021/06/27 06:52:15;;;;;;;0.68;0.68;;;;;;;;;;5004072;28;20022;-79
2021/06/27 06:54:41;;;;;;;0.63;0.63;;;;;;;;;;5003215;28;20415;-78
2021/06/27 06:57:08;;;;;;;0.80;0.77;;;;;;;;;;4999388;28;20101;-79
2021/06/27 06:59:34;;;;;;;0.70;0.70;;;;;;;;;;4996929;28;20022;-78
2021/06/27 07:02:00;;;;;;;0.63;0.63;;;;;;;;;;4995831;28;20026;-78
2021/06/27 07:04:26;;;;;;;0.90;0.90;;;;;;;;;;4995732;28;20464;-79
2021/06/27 07:06:52;;;;;;;0.70;0.70;;;;;;;;;;4996313;28;20407;-79
2021/06/27 07:09:18;;;;;;;1.13;0.85;;;;;;;;;;4996224;28;20116;-79
2021/06/27 07:11:45;;;;;;;0.82;0.82;;;;;;;;;;4997738;28;20032;-79
2021/06/27 07:14:11;;;;;;;1.15;0.70;;;;;;;;;;4994392;28;20038;-80
2021/06/27 07:16:37;;;;;;;0.80;0.80;;;;;;;;;;4996036;28;20023;-79
2021/06/27 07:19:03;;;;;;;0.70;0.70;;;;;;;;;;4995627;28;20062;-79
2021/06/27 07:21:30;;;;;;;0.80;0.80;;;;;;;;;;4997262;28;20498;-79
2021/06/27 07:23:56;;;;;;;1.17;0.60;;;;;;;;;;5002657;28;20102;-77
2021/06/27 07:26:22;;;;;;;0.50;0.50;;;;;;;;;;4998783;28;20038;-77
2021/06/27 07:28:48;;;;;;;0.63;0.63;;;;;;;;;;4993354;28;20041;-77
2021/06/27 07:31:14;;;;;;;0.80;0.80;;;;;;;;;;4994700;28;20034;-78
2021/06/27 07:33:40;;;;;;;0.65;0.65;;;;;;;;;;4995953;28;20561;-78
2021/06/27 07:36:07;;;;;;;0.82;0.82;;;;;;;;;;4995958;28;20018;-78
2021/06/27 07:38:33;;;;;;;0.93;0.60;;;;;;;;;;4993043;28;20631;-78
2021/06/27 07:40:59;;;;;;;0.88;0.68;;;;;;;;;;4994131;28;20022;-77
2021/06/27 07:43:25;;;;;;;0.40;0.40;;;;;;;;;;4994308;28;20057;-77
2021/06/27 07:45:51;;;;;;;0.70;0.70;;;;;;;;;;4993640;28;20415;-77
2021/06/27 07:48:17;;;;;;;0.55;0.52;;;;;;;;;;4994010;28;20048;-77
2021/06/27 07:50:43;;;;;;;0.88;0.88;;;;;;;;;;4994098;28;20378;-77
2021/06/27 07:53:09;;;;;;;0.70;0.70;;;;;;;;;;5001112;28;20034;-77
2021/06/27 07:55:35;;;;;;;0.60;0.60;;;;;;;;;;4993779;28;20058;-77
2021/06/27 07:58:02;;;;;;;2.08;0.73;;;;;;;;;;4993184;28;20042;-78
2021/06/27 08:00:31;;;;;;;0.55;0.55;;;;;;;;;;4994395;28;20027;-77
2021/06/27 08:02:58;;;;;;;0.70;0.70;;;;;;;;;;4994511;28;20023;-78
2021/06/27 08:05:24;;;;;;;0.80;0.73;;;;;;;;;;4993623;28;20026;-77
2021/06/27 08:07:50;;;;;;;0.70;0.70;;;;;;;;;;4993548;28;20041;-78
2021/06/27 08:10:16;;;;;;;0.80;0.75;;;;;;;;;;4993189;28;20034;-77
2021/06/27 08:12:42;;;;;;;1.40;0.73;;;;;;;;;;4993317;28;20037;-77
2021/06/27 08:15:10;;;;;;;0.70;0.68;;;;;;;;;;4992580;28;20081;-77
2021/06/27 08:17:36;;;;;;;0.65;0.65;;;;;;;;;;4993219;28;20061;-78
2021/06/27 08:20:05;;;;;;;0.73;0.73;;;;;;;;;;4992794;28;20034;-77
2021/06/27 08:22:31;;;;;;;0.93;0.93;;;;;;;;;;4998591;28;20666;-77
2021/06/27 08:24:57;;;;;;;0.75;0.75;;;;;;;;;;5001902;28;20054;-77
2021/06/27 08:27:23;;;;;;;0.60;0.60;;;;;;;;;;4993055;28;20523;-78
2021/06/27 08:29:49;;;;;;;0.63;0.63;;;;;;;;;;4993100;28;20538;-77
2021/06/27 08:32:15;;;;;;;0.70;0.70;;;;;;;;;;4993154;28;20395;-78
2021/06/27 08:34:41;;;;;;;1.95;0.80;;;;;;;;;;4992988;28;20476;-78
2021/06/27 08:37:07;;;;;;;0.75;0.75;;;;;;;;;;4993166;28;20026;-77
2021/06/27 08:39:33;;;;;;;0.70;0.70;;;;;;;;;;4992635;28;20023;-76
2021/06/27 08:41:59;;;;;;;1.33;0.73;;;;;;;;;;4993208;28;20038;-77
2021/06/27 08:44:26;;;;;;;0.60;0.60;;;;;;;;;;4975524;28;20200;-76
2021/06/27 08:46:53;;;;;;;0.80;0.80;;;;;;;;;;4992525;28;20034;-77
2021/06/27 08:49:20;;;;;;;0.73;0.73;;;;;;;;;;4992166;28;20085;-76
2021/06/27 08:51:46;;;;;;;1.33;1.23;;;;;;;;;;4993373;28;20030;-77
2021/06/27 08:54:12;;;;;;;0.93;0.93;;;;;;;;;;4999906;28;20030;-77
2021/06/27 08:56:40;;;;;;;1.15;0.82;;;;;;;;;;4992693;28;20456;-77
2021/06/27 08:59:06;;;;;;;0.70;0.70;;;;;;;;;;4974567;28;20030;-77
2021/06/27 09:01:32;;;;;;;0.95;0.95;;;;;;;;;;4993610;28;20018;-77
2021/06/27 09:03:59;;;;;;;1.58;0.88;;;;;;;;;;4992509;28;20352;-77
2021/06/27 09:06:32;;;;;;;4.47;1.65;;;;;;;;;;4992293;28;20026;-77
2021/06/27 09:09:21;;;;;;;1.65;1.10;;;;;;;;;;4974623;28;20034;-78
2021/06/27 09:11:57;;;;;;;1.10;1.10;;;;;;;;;;4993199;28;20034;-78
2021/06/27 09:14:46;;;;;;;0.95;0.95;;;;;;;;;;4975145;28;20034;-78
2021/06/27 09:17:14;;;;;;;0.98;0.80;;;;;;;;;;4986795;28;20451;-77
2021/06/27 09:19:55;;;;;;;1.60;1.10;;;;;;;;;;4992000;28;20497;-78
2021/06/27 09:22:22;;;;;;;0.93;0.80;;;;;;;;;;4968699;28;20490;-77
2021/06/27 09:24:48;;;;;;;0.85;0.85;;;;;;;;;;5004347;28;20105;-78
2021/06/27 09:27:16;;;;;;;0.82;0.82;;;;;;;;;;4993511;28;20026;-77
2021/06/27 09:29:42;;;;;;;1.40;1.17;;;;;;;;;;4992394;28;20526;-77
2021/06/27 09:32:21;;;;;;;1.23;1.17;;;;;;;;;;4992651;28;20037;-78
2021/06/27 09:34:48;;;;;;;1.30;1.15;;;;;;;;;;4992542;28;20030;-78
2021/06/27 09:37:15;;;;;;;1.48;1.38;;;;;;;;;;4992072;28;20064;-78
2021/06/27 09:39:59;;;;;;;2.78;1.33;;;;;;;;;;4992515;28;20035;-78
2021/06/27 09:42:25;;;;;;;0.93;0.93;;;;;;;;;;4993318;28;20030;-78
2021/06/27 09:45:01;;;;;;;2.50;1.20;;;;;;;;;;4993242;28;20037;-78
2021/06/27 09:47:27;;;;;;;1.63;1.00;;;;;;;;;;4992226;28;20068;-78
2021/06/27 09:49:54;;;;;;;2.22;1.38;;;;;;;;;;4991994;28;20030;-78
2021/06/27 09:52:34;;;;;;;1.70;0.93;;;;;;;;;;4995713;28;20045;-78
2021/06/27 09:55:07;;;;;;;2.63;1.02;;;;;;;;;;5004495;28;20026;-78
2021/06/27 09:57:33;;;;;;;0.95;0.88;;;;;;;;;;4995976;28;20042;-78
2021/06/27 09:59:59;;;;;;;1.10;1.10;;;;;;;;;;4991353;28;20034;-77
2021/06/27 10:02:25;;;;;;;1.10;1.10;;;;;;;;;;4995120;28;20023;-77
2021/06/27 10:04:51;;;;;;;1.08;0.90;;;;;;;;;;4995930;28;20030;-77
2021/06/27 10:07:17;;;;;;;1.33;1.13;;;;;;;;;;4978306;28;20037;-77
2021/06/27 10:09:43;;;;;;;1.23;1.17;;;;;;;;;;4995754;28;20479;-77
2021/06/27 10:12:18;;;;;;;1.00;0.90;;;;;;;;;;4996307;28;20114;-77
2021/06/27 10:14:49;;;;;;;1.08;1.08;;;;;;;;;;4996005;28;20027;-77
2021/06/27 10:17:15;;;;;;;1.10;1.00;;;;;;;;;;4995898;28;20031;-76
2021/06/27 10:19:41;;;;;;;1.45;1.30;;;;;;;;;;4995215;28;20066;-77
2021/06/27 10:22:08;;;;;;;0.90;0.90;;;;;;;;;;4996969;28;20407;-77
2021/06/27 10:24:34;;;;;;;1.45;1.15;;;;;;;;;;5007098;28;20490;-76
2021/06/27 10:27:00;;;;;;;2.15;1.25;;;;;;;;;;4996173;28;20145;-77
2021/06/27 10:29:26;;;;;;;2.33;1.30;;;;;;;;;;4995410;28;20034;-77
2021/06/27 10:31:54;;;;;;;1.20;1.10;;;;;;;;;;4997492;28;20113;-77
2021/06/27 10:34:21;;;;;;;1.02;1.02;;;;;;;;;;5003014;28;20049;-77
2021/06/27 10:36:51;;;;;;;1.85;1.35;;;;;;;;;;4994940;28;20081;-77
2021/06/27 10:39:18;;;;;;;1.15;1.13;;;;;;;;;;4994562;28;20023;-77
2021/06/27 10:41:55;;;;;;;1.70;1.20;;;;;;;;;;4994874;28;20031;-76
2021/06/27 10:44:25;;;;;;;2.15;1.40;;;;;;;;;;4995542;28;20483;-77
2021/06/27 10:46:52;;;;;;;2.28;1.02;;;;;;;;;;4996429;28;20030;-77
2021/06/27 10:49:31;;;;;;;1.23;1.15;;;;;;;;;;4995137;28;20082;-77
2021/06/27 10:52:01;;;;;;;1.30;1.20;;;;;;;;;;4995427;28;20072;-76
2021/06/27 10:54:32;;;;;;;1.60;1.50;;;;;;;;;;5004092;28;20088;-76
2021/06/27 10:57:11;;;;;;;1.45;1.35;;;;;;;;;;4995271;28;20026;-77
2021/06/27 10:59:40;;;;;;;1.23;1.23;;;;;;;;;;4993900;28;20041;-76
2021/06/27 11:02:19;;;;;;;1.40;1.30;;;;;;;;;;4996331;28;20019;-76
2021/06/27 11:04:45;;;;;;;2.63;1.33;;;;;;;;;;4994175;28;20023;-76
2021/06/27 11:07:30;;;;;;;0.98;0.98;;;;;;;;;;4994931;28;20514;-77
2021/06/27 11:10:15;;;;;;;1.02;1.02;;;;;;;;;;4995287;28;20061;-76
2021/06/27 11:15:23;;;;;;;0.98;0.98;;;;;;;;;;4995992;28;20030;-77
2021/06/27 11:17:52;;;;;;;1.10;1.10;;;;;;;;;;4996668;28;20483;-77
2021/06/27 11:20:21;;;;;;;0.95;0.93;;;;;;;;;;4993875;28;20026;-77
2021/06/27 11:23:02;;;;;;;1.30;1.10;;;;;;;;;;4991743;28;20049;-77
2021/06/27 11:25:41;;;;;;;1.33;0.98;;;;;;;;;;4996296;28;20420;-77
2021/06/27 11:28:40;;;;;;;1.77;0.80;;;;;;;;;;4993344;28;20030;-78
2021/06/27 11:31:26;;;;;;;0.90;0.90;;;;;;;;;;4992176;28;20061;-78
2021/06/27 11:34:11;;;;;;;0.80;0.80;;;;;;;;;;4994922;28;20108;-77
2021/06/27 11:36:38;;;;;;;1.65;1.30;;;;;;;;;;4996174;28;20064;-77
2021/06/27 11:39:07;;;;;;;0.82;0.82;;;;;;;;;;4998366;28;20022;-77
2021/06/27 11:41:37;;;;;;;1.23;1.13;;;;;;;;;;4994256;28;20029;-77
2021/06/27 11:44:03;;;;;;;1.23;1.10;;;;;;;;;;4994871;28;20076;-76
2021/06/27 11:46:42;;;;;;;1.15;1.15;;;;;;;;;;4997275;28;20038;-76
2021/06/27 11:49:20;;;;;;;1.25;1.23;;;;;;;;;;4993822;28;20018;-75
2021/06/27 11:51:57;;;;;;;2.58;1.27;;;;;;;;;;4993998;28;20541;-75
2021/06/27 11:54:29;;;;;;;1.27;1.17;;;;;;;;;;4994815;28;20522;-75
2021/06/27 11:57:06;;;;;;;1.20;1.10;;;;;;;;;;4993549;28;20084;-75
2021/06/27 11:59:36;;;;;;;0.90;0.90;;;;;;;;;;4993998;28;20033;-76
2021/06/27 12:02:26;;;;;;;1.25;1.20;;;;;;;;;;4993741;28;20019;-76
2021/06/27 12:04:56;;;;;;;2.35;1.40;;;;;;;;;;4993803;28;20499;-75
2021/06/27 12:07:31;;;;;;;1.42;1.23;;;;;;;;;;4993513;28;20451;-75
2021/06/27 12:09:58;;;;;;;2.42;1.35;;;;;;;;;;4993659;28;20050;-75
2021/06/27 12:12:38;;;;;;;1.33;1.23;;;;;;;;;;4993990;28;20033;-75
2021/06/27 12:15:08;;;;;;;2.67;1.48;;;;;;;;;;4993785;28;20030;-74
2021/06/27 12:17:34;;;;;;;1.25;1.20;;;;;;;;;;4993167;28;20053;-74
2021/06/27 12:20:00;;;;;;;1.45;1.35;;;;;;;;;;4993676;28;20037;-74
2021/06/27 12:22:26;;;;;;;1.02;1.02;;;;;;;;;;4997376;28;20017;-74
2021/06/27 12:25:00;;;;;;;1.20;1.20;;;;;;;;;;5004974;28;20050;-74
2021/06/27 12:27:26;;;;;;;1.35;1.35;;;;;;;;;;4983916;28;20165;-74
2021/06/27 12:29:52;;;;;;;1.40;1.30;;;;;;;;;;4993487;28;20026;-74
2021/06/27 12:32:19;;;;;;;2.08;1.70;;;;;;;;;;4993580;28;20027;-74
2021/06/27 12:34:45;;;;;;;1.55;1.50;;;;;;;;;;4993734;28;20030;-74
2021/06/27 12:37:12;;;;;;;1.50;1.40;;;;;;;;;;4993009;28;20151;-75
2021/06/27 12:39:38;;;;;;;1.70;1.60;;;;;;;;;;4993224;28;20022;-75
2021/06/27 12:42:08;;;;;;;1.60;1.50;;;;;;;;;;4993104;28;20019;-75
2021/06/27 12:44:34;;;;;;;1.55;1.45;;;;;;;;;;4993131;28;20033;-75
2021/06/27 12:47:00;;;;;;;1.55;1.45;;;;;;;;;;4993229;28;20034;-75
2021/06/27 12:49:29;;;;;;;1.30;1.30;;;;;;;;;;4992952;28;20022;-75
2021/06/27 12:52:00;;;;;;;2.55;1.60;;;;;;;;;;4993065;28;20056;-75
2021/06/27 12:54:47;;;;;;;1.85;1.40;;;;;;;;;;5004485;28;20037;-75
2021/06/27 12:57:19;;;;;;;1.90;1.80;;;;;;;;;;5010327;28;20025;-75
2021/06/27 12:59:45;;;;;;;1.42;1.40;;;;;;;;;;4992484;28;20030;-74
2021/06/27 13:02:17;;;;;;;1.70;1.60;;;;;;;;;;4992642;28;20026;-74
2021/06/27 13:04:45;;;;;;;2.72;1.45;;;;;;;;;;4992738;28;20101;-74
2021/06/27 13:07:16;;;;;;;1.63;1.52;;;;;;;;;;4992885;28;20479;-75
2021/06/27 13:09:57;;;;;;;1.52;1.42;;;;;;;;;;4992376;28;20057;-75
2021/06/27 13:12:23;;;;;;;1.65;1.55;;;;;;;;;;4975200;28;20492;-74
2021/06/27 13:14:51;;;;;;;1.73;1.63;;;;;;;;;;4992710;28;20468;-75
2021/06/27 13:17:21;;;;;;;1.95;1.55;;;;;;;;;;4975258;28;20057;-75
2021/06/27 13:20:13;;;;;;;1.70;1.60;;;;;;;;;;4992270;28;20030;-75
2021/06/27 13:22:57;;;;;;;1.83;1.67;;;;;;;;;;4998502;28;20014;-75
2021/06/27 13:25:32;;;;;;;1.83;1.75;;;;;;;;;;4986761;28;20026;-74
2021/06/27 13:27:58;;;;;;;1.63;1.52;;;;;;;;;;5012253;28;20030;-75
2021/06/27 13:30:24;;;;;;;2.20;2.00;;;;;;;;;;4992065;28;20468;-75
2021/06/27 13:33:04;;;;;;;2.28;1.73;;;;;;;;;;4992670;28;20038;-75
2021/06/27 13:35:31;;;;;;;1.33;1.33;;;;;;;;;;4992343;28;20037;-75
2021/06/27 13:37:59;;;;;;;1.45;1.45;;;;;;;;;;4996322;28;20502;-75
2021/06/27 13:40:25;;;;;;;1.33;1.27;;;;;;;;;;4996110;28;20031;-75
2021/06/27 13:42:52;;;;;;;2.05;1.50;;;;;;;;;;4996083;28;20027;-74
2021/06/27 13:45:21;;;;;;;1.70;1.45;;;;;;;;;;4996016;28;20022;-75
2021/06/27 13:47:47;;;;;;;2.03;1.83;;;;;;;;;;4996407;28;20479;-74
2021/06/27 13:50:13;;;;;;;1.70;1.60;;;;;;;;;;4996151;28;20041;-75
2021/06/27 13:52:40;;;;;;;1.90;1.80;;;;;;;;;;5002438;28;20084;-75
2021/06/27 13:55:06;;;;;;;1.67;1.63;;;;;;;;;;5006193;28;20027;-75
2021/06/27 13:57:32;;;;;;;1.85;1.75;;;;;;;;;;4996185;28;20483;-75
2021/06/27 13:59:58;;;;;;;2.35;1.80;;;;;;;;;;4978566;28;20034;-74
2021/06/27 14:02:24;;;;;;;1.90;1.80;;;;;;;;;;4996148;28;20042;-74
2021/06/27 14:04:50;;;;;;;1.70;1.60;;;;;;;;;;4991119;28;20054;-76
2021/06/27 14:07:16;;;;;;;3.17;1.77;;;;;;;;;;4991878;28;20052;-75
2021/06/27 14:09:44;;;;;;;1.77;1.67;;;;;;;;;;5008212;28;20026;-78
2021/06/27 14:12:10;;;;;;;1.70;1.60;;;;;;;;;;4995531;28;20121;-75
2021/06/27 14:14:36;;;;;;;1.60;1.50;;;;;;;;;;4998875;28;20041;-75
2021/06/27 14:17:02;;;;;;;1.95;1.70;;;;;;;;;;4997952;28;20499;-75
2021/06/27 14:19:28;;;;;;;3.03;2.00;;;;;;;;;;5013737;28;20032;-75
2021/06/27 14:21:55;;;;;;;2.08;1.90;;;;;;;;;;5008680;28;20041;-75
2021/06/27 14:24:21;;;;;;;2.25;2.15;;;;;;;;;;4996070;28;20061;-75
2021/06/27 14:26:48;;;;;;;3.75;2.22;;;;;;;;;;4996263;28;20053;-75
2021/06/27 14:29:14;;;;;;;2.47;2.28;;;;;;;;;;4994920;28;20053;-75
2021/06/27 14:31:40;;;;;;;3.10;2.10;;;;;;;;;;4994805;28;20031;-75
2021/06/27 14:34:06;;;;;;;2.47;2.28;;;;;;;;;;4998564;28;20102;-75
2021/06/27 14:36:32;;;;;;;2.33;2.20;;;;;;;;;;4996632;28;20333;-75
2021/06/27 14:38:58;;;;;;;2.45;2.03;;;;;;;;;;4996703;28;20054;-75
2021/06/27 14:41:30;;;;;;;2.33;2.22;;;;;;;;;;5009423;28;20026;-75
2021/06/27 14:43:55;;;;;;;;;;;;;;;;;;5015490;28;20022;-75
2021/06/27 14:46:22;;;;;;;2.33;2.13;;;;;;;;;;5002847;28;19975;-75
2021/06/27 14:48:48;;;;;;;4.43;2.30;;;;;;;;;;5002832;28;20027;-75
2021/06/27 14:51:15;;;;;;;2.30;2.08;;;;;;;;;;5014467;28;20064;-74